sensor_id;sensor_type;location;lat;lon;timestamp;P1;durP1;ratioP1;P2;durP2;ratioP2
67597;SDS011;62026;39.230;9.122;2023-02-01T00:00:24;15.55;;;6.72;;
67597;SDS011;62026;39.230;9.122;2023-02-01T00:02:50;19.85;;;9.00;;
67597;SDS011;62026;39.230;9.122;2023-02-01T00:05:16;18.75;;;8.48;;
67597;SDS011;62026;39.230;9.122;2023-02-01T00:07:42;16.02;;;7.22;;
67597;SDS011;62026;39.230;9.122;2023-02-01T00:10:08;17.75;;;6.63;;
67597;SDS011;62026;39.230;9.122;2023-02-01T00:12:35;21.45;;;7.03;;
67597;SDS011;62026;39.230;9.122;2023-02-01T00:15:01;14.20;;;6.97;;
67597;SDS011;62026;39.230;9.122;2023-02-01T00:17:28;21.52;;;6.53;;
67597;SDS011;62026;39.230;9.122;2023-02-01T00:19:54;19.42;;;7.50;;
67597;SDS011;62026;39.230;9.122;2023-02-01T00:22:20;18.55;;;7.30;;
67597;SDS011;62026;39.230;9.122;2023-02-01T00:24:46;16.98;;;7.63;;
67597;SDS011;62026;39.230;9.122;2023-02-01T00:27:12;17.50;;;8.07;;
67597;SDS011;62026;39.230;9.122;2023-02-01T00:29:43;19.40;;;7.72;;
67597;SDS011;62026;39.230;9.122;2023-02-01T00:32:10;16.58;;;7.00;;
67597;SDS011;62026;39.230;9.122;2023-02-01T00:34:36;21.08;;;7.68;;
67597;SDS011;62026;39.230;9.122;2023-02-01T00:37:02;18.17;;;7.63;;
67597;SDS011;62026;39.230;9.122;2023-02-01T00:39:28;20.05;;;7.22;;
67597;SDS011;62026;39.230;9.122;2023-02-01T00:41:54;18.73;;;7.60;;
67597;SDS011;62026;39.230;9.122;2023-02-01T00:44:20;22.05;;;7.95;;
67597;SDS011;62026;39.230;9.122;2023-02-01T00:46:46;20.83;;;9.15;;
67597;SDS011;62026;39.230;9.122;2023-02-01T00:49:12;16.33;;;8.70;;
67597;SDS011;62026;39.230;9.122;2023-02-01T00:51:38;19.42;;;9.52;;
67597;SDS011;62026;39.230;9.122;2023-02-01T00:54:05;23.42;;;9.02;;
67597;SDS011;62026;39.230;9.122;2023-02-01T00:56:31;17.52;;;8.00;;
67597;SDS011;62026;39.230;9.122;2023-02-01T00:58:58;19.83;;;9.10;;
67597;SDS011;62026;39.230;9.122;2023-02-01T01:01:25;19.67;;;8.50;;
67597;SDS011;62026;39.230;9.122;2023-02-01T01:03:55;15.10;;;8.68;;
67597;SDS011;62026;39.230;9.122;2023-02-01T01:06:28;20.35;;;7.90;;
67597;SDS011;62026;39.230;9.122;2023-02-01T01:08:57;17.52;;;7.78;;
67597;SDS011;62026;39.230;9.122;2023-02-01T01:11:27;15.32;;;7.57;;
67597;SDS011;62026;39.230;9.122;2023-02-01T01:13:57;17.80;;;7.97;;
67597;SDS011;62026;39.230;9.122;2023-02-01T01:16:25;17.85;;;7.90;;
67597;SDS011;62026;39.230;9.122;2023-02-01T01:18:54;18.95;;;7.45;;
67597;SDS011;62026;39.230;9.122;2023-02-01T01:21:21;19.38;;;7.40;;
67597;SDS011;62026;39.230;9.122;2023-02-01T01:23:48;16.77;;;6.55;;
67597;SDS011;62026;39.230;9.122;2023-02-01T01:26:19;13.88;;;6.45;;
67597;SDS011;62026;39.230;9.122;2023-02-01T01:28:49;17.45;;;6.40;;
67597;SDS011;62026;39.230;9.122;2023-02-01T01:31:17;15.20;;;5.70;;
67597;SDS011;62026;39.230;9.122;2023-02-01T01:33:47;17.00;;;5.95;;
67597;SDS011;62026;39.230;9.122;2023-02-01T01:36:18;12.98;;;5.40;;
67597;SDS011;62026;39.230;9.122;2023-02-01T01:38:45;13.30;;;5.20;;
67597;SDS011;62026;39.230;9.122;2023-02-01T01:41:16;9.73;;;5.15;;
67597;SDS011;62026;39.230;9.122;2023-02-01T01:43:49;11.50;;;4.97;;
67597;SDS011;62026;39.230;9.122;2023-02-01T01:46:24;14.80;;;4.88;;
67597;SDS011;62026;39.230;9.122;2023-02-01T01:49:05;13.02;;;4.93;;
67597;SDS011;62026;39.230;9.122;2023-02-01T01:51:40;11.23;;;4.50;;
67597;SDS011;62026;39.230;9.122;2023-02-01T01:54:26;10.98;;;4.63;;
67597;SDS011;62026;39.230;9.122;2023-02-01T01:57:00;13.07;;;5.57;;
67597;SDS011;62026;39.230;9.122;2023-02-01T01:59:34;13.80;;;5.78;;
67597;SDS011;62026;39.230;9.122;2023-02-01T02:02:04;12.48;;;5.85;;
67597;SDS011;62026;39.230;9.122;2023-02-01T02:04:31;12.05;;;5.68;;
67597;SDS011;62026;39.230;9.122;2023-02-01T02:07:00;16.20;;;6.45;;
67597;SDS011;62026;39.230;9.122;2023-02-01T02:09:37;9.65;;;6.47;;
67597;SDS011;62026;39.230;9.122;2023-02-01T02:12:03;12.38;;;6.53;;
67597;SDS011;62026;39.230;9.122;2023-02-01T02:14:30;18.50;;;7.18;;
67597;SDS011;62026;39.230;9.122;2023-02-01T02:17:00;15.68;;;7.10;;
67597;SDS011;62026;39.230;9.122;2023-02-01T02:23:22;13.13;;;6.55;;
67597;SDS011;62026;39.230;9.122;2023-02-01T02:42:53;9.85;;;5.68;;
67597;SDS011;62026;39.230;9.122;2023-02-01T02:49:11;14.35;;;5.57;;
67597;SDS011;62026;39.230;9.122;2023-02-01T02:52:09;13.73;;;5.72;;
67597;SDS011;62026;39.230;9.122;2023-02-01T02:55:12;9.07;;;4.72;;
67597;SDS011;62026;39.230;9.122;2023-02-01T02:57:40;9.95;;;4.57;;
67597;SDS011;62026;39.230;9.122;2023-02-01T03:00:29;11.68;;;4.95;;
67597;SDS011;62026;39.230;9.122;2023-02-01T03:03:17;9.52;;;4.60;;
67597;SDS011;62026;39.230;9.122;2023-02-01T03:06:02;11.90;;;4.97;;
67597;SDS011;62026;39.230;9.122;2023-02-01T03:08:31;10.35;;;5.15;;
67597;SDS011;62026;39.230;9.122;2023-02-01T03:10:59;11.10;;;5.07;;
67597;SDS011;62026;39.230;9.122;2023-02-01T03:16:27;12.10;;;4.88;;
67597;SDS011;62026;39.230;9.122;2023-02-01T03:19:02;9.57;;;5.20;;
67597;SDS011;62026;39.230;9.122;2023-02-01T03:21:43;10.43;;;4.40;;
67597;SDS011;62026;39.230;9.122;2023-02-01T03:24:46;9.30;;;3.75;;
67597;SDS011;62026;39.230;9.122;2023-02-01T03:27:21;10.70;;;4.07;;
67597;SDS011;62026;39.230;9.122;2023-02-01T03:30:29;17.92;;;4.55;;
67597;SDS011;62026;39.230;9.122;2023-02-01T03:33:09;11.30;;;4.25;;
67597;SDS011;62026;39.230;9.122;2023-02-01T03:35:50;12.10;;;4.07;;
67597;SDS011;62026;39.230;9.122;2023-02-01T03:41:47;11.65;;;3.75;;
67597;SDS011;62026;39.230;9.122;2023-02-01T03:44:24;7.93;;;3.17;;
67597;SDS011;62026;39.230;9.122;2023-02-01T03:47:18;7.10;;;2.95;;
67597;SDS011;62026;39.230;9.122;2023-02-01T03:49:54;11.60;;;3.57;;
67597;SDS011;62026;39.230;9.122;2023-02-01T03:52:43;10.13;;;3.10;;
67597;SDS011;62026;39.230;9.122;2023-02-01T03:55:14;10.50;;;3.10;;
67597;SDS011;62026;39.230;9.122;2023-02-01T03:57:48;13.48;;;3.53;;
67597;SDS011;62026;39.230;9.122;2023-02-01T04:00:25;13.00;;;3.55;;
67597;SDS011;62026;39.230;9.122;2023-02-01T04:02:54;10.95;;;3.92;;
67597;SDS011;62026;39.230;9.122;2023-02-01T04:05:20;9.95;;;3.30;;
67597;SDS011;62026;39.230;9.122;2023-02-01T04:07:57;6.10;;;3.25;;
67597;SDS011;62026;39.230;9.122;2023-02-01T04:10:24;7.70;;;3.20;;
67597;SDS011;62026;39.230;9.122;2023-02-01T04:12:50;11.70;;;3.65;;
67597;SDS011;62026;39.230;9.122;2023-02-01T04:15:16;17.02;;;4.05;;
67597;SDS011;62026;39.230;9.122;2023-02-01T04:17:42;9.18;;;3.55;;
67597;SDS011;62026;39.230;9.122;2023-02-01T04:20:08;17.20;;;3.53;;
67597;SDS011;62026;39.230;9.122;2023-02-01T04:22:35;9.50;;;3.15;;
67597;SDS011;62026;39.230;9.122;2023-02-01T04:25:02;10.80;;;3.03;;
67597;SDS011;62026;39.230;9.122;2023-02-01T04:27:31;11.52;;;3.53;;
67597;SDS011;62026;39.230;9.122;2023-02-01T04:29:57;7.88;;;2.88;;
67597;SDS011;62026;39.230;9.122;2023-02-01T04:32:23;7.00;;;2.97;;
67597;SDS011;62026;39.230;9.122;2023-02-01T04:34:49;9.23;;;3.10;;
67597;SDS011;62026;39.230;9.122;2023-02-01T04:37:15;5.40;;;2.53;;
67597;SDS011;62026;39.230;9.122;2023-02-01T04:39:41;10.13;;;2.72;;
67597;SDS011;62026;39.230;9.122;2023-02-01T04:42:07;10.45;;;2.75;;
67597;SDS011;62026;39.230;9.122;2023-02-01T04:44:33;7.93;;;2.58;;
67597;SDS011;62026;39.230;9.122;2023-02-01T04:47:02;13.18;;;3.00;;
67597;SDS011;62026;39.230;9.122;2023-02-01T04:49:28;6.82;;;2.20;;
67597;SDS011;62026;39.230;9.122;2023-02-01T04:51:54;9.52;;;2.50;;
67597;SDS011;62026;39.230;9.122;2023-02-01T04:54:20;9.05;;;2.65;;
67597;SDS011;62026;39.230;9.122;2023-02-01T04:56:46;9.52;;;2.63;;
67597;SDS011;62026;39.230;9.122;2023-02-01T04:59:12;8.10;;;2.40;;
67597;SDS011;62026;39.230;9.122;2023-02-01T05:01:38;9.00;;;2.55;;
67597;SDS011;62026;39.230;9.122;2023-02-01T05:04:04;5.80;;;2.50;;
67597;SDS011;62026;39.230;9.122;2023-02-01T05:06:30;10.20;;;2.75;;
67597;SDS011;62026;39.230;9.122;2023-02-01T05:08:56;12.20;;;2.50;;
67597;SDS011;62026;39.230;9.122;2023-02-01T05:11:22;9.98;;;2.75;;
67597;SDS011;62026;39.230;9.122;2023-02-01T05:14:07;9.63;;;2.60;;
67597;SDS011;62026;39.230;9.122;2023-02-01T05:16:33;8.25;;;2.40;;
67597;SDS011;62026;39.230;9.122;2023-02-01T05:18:59;6.88;;;2.33;;
67597;SDS011;62026;39.230;9.122;2023-02-01T05:21:25;8.20;;;2.33;;
67597;SDS011;62026;39.230;9.122;2023-02-01T05:23:51;8.65;;;2.50;;
67597;SDS011;62026;39.230;9.122;2023-02-01T05:26:36;7.55;;;2.30;;
67597;SDS011;62026;39.230;9.122;2023-02-01T05:29:03;13.27;;;2.25;;
67597;SDS011;62026;39.230;9.122;2023-02-01T05:31:31;6.80;;;2.10;;
67597;SDS011;62026;39.230;9.122;2023-02-01T05:33:57;7.88;;;2.00;;
67597;SDS011;62026;39.230;9.122;2023-02-01T05:36:23;8.55;;;2.20;;
67597;SDS011;62026;39.230;9.122;2023-02-01T05:38:49;7.30;;;2.55;;
67597;SDS011;62026;39.230;9.122;2023-02-01T05:41:15;7.28;;;2.22;;
67597;SDS011;62026;39.230;9.122;2023-02-01T05:43:41;7.63;;;2.70;;
67597;SDS011;62026;39.230;9.122;2023-02-01T05:46:07;7.45;;;2.40;;
67597;SDS011;62026;39.230;9.122;2023-02-01T05:48:37;7.95;;;2.63;;
67597;SDS011;62026;39.230;9.122;2023-02-01T05:51:05;8.18;;;2.65;;
67597;SDS011;62026;39.230;9.122;2023-02-01T05:53:31;6.18;;;2.33;;
67597;SDS011;62026;39.230;9.122;2023-02-01T05:55:58;9.23;;;2.50;;
67597;SDS011;62026;39.230;9.122;2023-02-01T05:58:24;8.38;;;2.90;;
67597;SDS011;62026;39.230;9.122;2023-02-01T06:00:50;9.40;;;3.33;;
67597;SDS011;62026;39.230;9.122;2023-02-01T06:03:16;5.28;;;2.53;;
67597;SDS011;62026;39.230;9.122;2023-02-01T06:05:46;9.65;;;3.20;;
67597;SDS011;62026;39.230;9.122;2023-02-01T06:08:13;11.25;;;3.13;;
67597;SDS011;62026;39.230;9.122;2023-02-01T06:10:39;14.10;;;3.55;;
67597;SDS011;62026;39.230;9.122;2023-02-01T06:13:05;13.65;;;3.90;;
67597;SDS011;62026;39.230;9.122;2023-02-01T06:15:31;16.80;;;3.60;;
67597;SDS011;62026;39.230;9.122;2023-02-01T06:17:57;9.73;;;3.92;;
67597;SDS011;62026;39.230;9.122;2023-02-01T06:20:23;12.98;;;3.78;;
67597;SDS011;62026;39.230;9.122;2023-02-01T06:22:50;11.25;;;3.60;;
67597;SDS011;62026;39.230;9.122;2023-02-01T06:25:17;16.48;;;4.03;;
67597;SDS011;62026;39.230;9.122;2023-02-01T06:27:44;14.32;;;4.13;;
67597;SDS011;62026;39.230;9.122;2023-02-01T06:30:10;13.52;;;3.92;;
67597;SDS011;62026;39.230;9.122;2023-02-01T06:32:41;11.80;;;4.22;;
67597;SDS011;62026;39.230;9.122;2023-02-01T06:35:08;12.45;;;4.57;;
67597;SDS011;62026;39.230;9.122;2023-02-01T06:37:41;12.30;;;3.58;;
67597;SDS011;62026;39.230;9.122;2023-02-01T06:40:07;6.80;;;3.53;;
67597;SDS011;62026;39.230;9.122;2023-02-01T06:42:34;13.35;;;4.18;;
67597;SDS011;62026;39.230;9.122;2023-02-01T06:45:00;12.35;;;3.80;;
67597;SDS011;62026;39.230;9.122;2023-02-01T06:47:26;19.73;;;4.63;;
67597;SDS011;62026;39.230;9.122;2023-02-01T06:49:52;12.27;;;4.10;;
67597;SDS011;62026;39.230;9.122;2023-02-01T06:52:18;11.00;;;3.95;;
67597;SDS011;62026;39.230;9.122;2023-02-01T06:54:44;7.50;;;3.42;;
67597;SDS011;62026;39.230;9.122;2023-02-01T06:57:10;14.02;;;3.90;;
67597;SDS011;62026;39.230;9.122;2023-02-01T06:59:36;16.33;;;3.60;;
67597;SDS011;62026;39.230;9.122;2023-02-01T07:02:02;10.88;;;3.30;;
67597;SDS011;62026;39.230;9.122;2023-02-01T07:04:28;17.48;;;3.53;;
67597;SDS011;62026;39.230;9.122;2023-02-01T07:06:55;7.68;;;3.15;;
67597;SDS011;62026;39.230;9.122;2023-02-01T07:09:21;15.10;;;3.58;;
67597;SDS011;62026;39.230;9.122;2023-02-01T07:11:47;10.02;;;3.13;;
67597;SDS011;62026;39.230;9.122;2023-02-01T07:14:13;10.23;;;3.45;;
67597;SDS011;62026;39.230;9.122;2023-02-01T07:16:39;10.13;;;3.45;;
67597;SDS011;62026;39.230;9.122;2023-02-01T07:19:05;13.68;;;3.67;;
67597;SDS011;62026;39.230;9.122;2023-02-01T07:21:31;12.70;;;3.85;;
67597;SDS011;62026;39.230;9.122;2023-02-01T07:23:58;18.83;;;3.95;;
67597;SDS011;62026;39.230;9.122;2023-02-01T07:26:25;10.45;;;3.63;;
67597;SDS011;62026;39.230;9.122;2023-02-01T07:28:51;9.70;;;3.40;;
67597;SDS011;62026;39.230;9.122;2023-02-01T07:31:18;13.98;;;3.47;;
67597;SDS011;62026;39.230;9.122;2023-02-01T07:33:47;9.90;;;3.25;;
67597;SDS011;62026;39.230;9.122;2023-02-01T07:36:17;11.63;;;3.33;;
67597;SDS011;62026;39.230;9.122;2023-02-01T07:38:44;10.98;;;2.33;;
67597;SDS011;62026;39.230;9.122;2023-02-01T07:41:12;9.18;;;2.90;;
67597;SDS011;62026;39.230;9.122;2023-02-01T07:43:38;10.45;;;3.70;;
67597;SDS011;62026;39.230;9.122;2023-02-01T07:46:04;8.73;;;2.92;;
67597;SDS011;62026;39.230;9.122;2023-02-01T07:48:31;10.65;;;3.17;;
67597;SDS011;62026;39.230;9.122;2023-02-01T07:51:05;15.40;;;3.42;;
67597;SDS011;62026;39.230;9.122;2023-02-01T07:53:35;5.90;;;2.72;;
67597;SDS011;62026;39.230;9.122;2023-02-01T07:56:02;11.27;;;3.22;;
67597;SDS011;62026;39.230;9.122;2023-02-01T07:58:29;9.02;;;2.97;;
67597;SDS011;62026;39.230;9.122;2023-02-01T08:00:55;8.45;;;3.08;;
67597;SDS011;62026;39.230;9.122;2023-02-01T08:03:40;9.60;;;3.38;;
67597;SDS011;62026;39.230;9.122;2023-02-01T08:06:06;13.52;;;4.10;;
67597;SDS011;62026;39.230;9.122;2023-02-01T08:08:33;11.40;;;4.00;;
67597;SDS011;62026;39.230;9.122;2023-02-01T08:10:59;11.88;;;3.95;;
67597;SDS011;62026;39.230;9.122;2023-02-01T08:13:28;15.75;;;5.65;;
67597;SDS011;62026;39.230;9.122;2023-02-01T08:15:58;12.45;;;4.57;;
67597;SDS011;62026;39.230;9.122;2023-02-01T08:18:25;17.75;;;4.45;;
67597;SDS011;62026;39.230;9.122;2023-02-01T08:20:52;12.30;;;3.67;;
67597;SDS011;62026;39.230;9.122;2023-02-01T08:23:18;6.55;;;3.13;;
67597;SDS011;62026;39.230;9.122;2023-02-01T08:25:46;13.05;;;3.33;;
67597;SDS011;62026;39.230;9.122;2023-02-01T08:28:13;19.13;;;3.53;;
67597;SDS011;62026;39.230;9.122;2023-02-01T08:30:39;10.23;;;2.72;;
67597;SDS011;62026;39.230;9.122;2023-02-01T08:33:07;8.50;;;2.75;;
67597;SDS011;62026;39.230;9.122;2023-02-01T08:35:34;15.68;;;2.75;;
67597;SDS011;62026;39.230;9.122;2023-02-01T08:38:02;6.40;;;2.90;;
67597;SDS011;62026;39.230;9.122;2023-02-01T08:40:29;8.52;;;2.88;;
67597;SDS011;62026;39.230;9.122;2023-02-01T08:42:56;7.05;;;2.55;;
67597;SDS011;62026;39.230;9.122;2023-02-01T08:45:24;9.25;;;3.20;;
67597;SDS011;62026;39.230;9.122;2023-02-01T08:47:55;11.70;;;3.35;;
67597;SDS011;62026;39.230;9.122;2023-02-01T08:50:22;9.00;;;3.40;;
67597;SDS011;62026;39.230;9.122;2023-02-01T08:52:50;10.88;;;4.50;;
67597;SDS011;62026;39.230;9.122;2023-02-01T08:55:16;15.05;;;5.53;;
67597;SDS011;62026;39.230;9.122;2023-02-01T08:57:42;20.88;;;5.97;;
67597;SDS011;62026;39.230;9.122;2023-02-01T09:00:11;15.02;;;6.38;;
67597;SDS011;62026;39.230;9.122;2023-02-01T09:02:41;15.00;;;6.30;;
67597;SDS011;62026;39.230;9.122;2023-02-01T09:05:07;18.30;;;7.95;;
67597;SDS011;62026;39.230;9.122;2023-02-01T09:07:34;20.77;;;8.63;;
67597;SDS011;62026;39.230;9.122;2023-02-01T09:10:01;24.15;;;8.90;;
67597;SDS011;62026;39.230;9.122;2023-02-01T09:12:28;21.00;;;8.32;;
67597;SDS011;62026;39.230;9.122;2023-02-01T09:14:56;23.77;;;9.68;;
67597;SDS011;62026;39.230;9.122;2023-02-01T09:17:27;21.30;;;9.57;;
67597;SDS011;62026;39.230;9.122;2023-02-01T09:19:55;20.42;;;8.48;;
67597;SDS011;62026;39.230;9.122;2023-02-01T09:22:21;18.75;;;7.88;;
67597;SDS011;62026;39.230;9.122;2023-02-01T09:24:47;16.95;;;6.57;;
67597;SDS011;62026;39.230;9.122;2023-02-01T09:27:13;18.63;;;6.38;;
67597;SDS011;62026;39.230;9.122;2023-02-01T09:29:39;18.50;;;6.53;;
67597;SDS011;62026;39.230;9.122;2023-02-01T09:32:05;15.35;;;5.93;;
67597;SDS011;62026;39.230;9.122;2023-02-01T09:34:32;12.63;;;5.68;;
67597;SDS011;62026;39.230;9.122;2023-02-01T09:36:59;17.48;;;5.50;;
67597;SDS011;62026;39.230;9.122;2023-02-01T09:39:25;15.43;;;5.93;;
67597;SDS011;62026;39.230;9.122;2023-02-01T09:42:07;12.00;;;4.57;;
67597;SDS011;62026;39.230;9.122;2023-02-01T09:47:49;15.60;;;4.72;;
67597;SDS011;62026;39.230;9.122;2023-02-01T09:50:22;12.05;;;4.13;;
67597;SDS011;62026;39.230;9.122;2023-02-01T09:55:39;14.88;;;4.30;;
67597;SDS011;62026;39.230;9.122;2023-02-01T10:00:43;16.92;;;5.40;;
67597;SDS011;62026;39.230;9.122;2023-02-01T10:03:18;9.18;;;3.97;;
67597;SDS011;62026;39.230;9.122;2023-02-01T10:12:48;12.45;;;2.60;;
67597;SDS011;62026;39.230;9.122;2023-02-01T10:21:58;8.23;;;2.30;;
67597;SDS011;62026;39.230;9.122;2023-02-01T10:24:34;11.48;;;2.95;;
67597;SDS011;62026;39.230;9.122;2023-02-01T10:29:52;15.30;;;3.80;;
67597;SDS011;62026;39.230;9.122;2023-02-01T10:32:56;15.82;;;4.28;;
67597;SDS011;62026;39.230;9.122;2023-02-01T10:35:39;12.52;;;4.63;;
67597;SDS011;62026;39.230;9.122;2023-02-01T10:38:16;12.52;;;3.95;;
67597;SDS011;62026;39.230;9.122;2023-02-01T10:40:55;11.60;;;4.03;;
67597;SDS011;62026;39.230;9.122;2023-02-01T10:43:29;9.32;;;3.08;;
67597;SDS011;62026;39.230;9.122;2023-02-01T10:45:56;10.35;;;2.80;;
67597;SDS011;62026;39.230;9.122;2023-02-01T10:48:22;5.22;;;2.25;;
67597;SDS011;62026;39.230;9.122;2023-02-01T10:50:51;8.93;;;2.22;;
67597;SDS011;62026;39.230;9.122;2023-02-01T10:53:34;11.00;;;2.47;;
67597;SDS011;62026;39.230;9.122;2023-02-01T10:56:13;9.45;;;2.58;;
67597;SDS011;62026;39.230;9.122;2023-02-01T10:58:46;7.47;;;1.95;;
67597;SDS011;62026;39.230;9.122;2023-02-01T11:01:47;7.80;;;3.13;;
67597;SDS011;62026;39.230;9.122;2023-02-01T11:04:10;7.70;;;2.22;;
67597;SDS011;62026;39.230;9.122;2023-02-01T11:06:44;7.32;;;2.85;;
67597;SDS011;62026;39.230;9.122;2023-02-01T11:09:32;17.15;;;3.83;;
67597;SDS011;62026;39.230;9.122;2023-02-01T11:12:07;9.82;;;3.72;;
67597;SDS011;62026;39.230;9.122;2023-02-01T11:15:11;13.85;;;3.60;;
67597;SDS011;62026;39.230;9.122;2023-02-01T11:17:48;12.15;;;2.53;;
67597;SDS011;62026;39.230;9.122;2023-02-01T11:20:18;6.38;;;2.28;;
67597;SDS011;62026;39.230;9.122;2023-02-01T11:22:59;9.52;;;2.05;;
67597;SDS011;62026;39.230;9.122;2023-02-01T11:25:26;4.95;;;1.67;;
67597;SDS011;62026;39.230;9.122;2023-02-01T11:27:53;5.35;;;1.90;;
67597;SDS011;62026;39.230;9.122;2023-02-01T11:30:34;8.10;;;2.13;;
67597;SDS011;62026;39.230;9.122;2023-02-01T11:33:06;11.85;;;2.92;;
67597;SDS011;62026;39.230;9.122;2023-02-01T11:35:45;8.48;;;2.88;;
67597;SDS011;62026;39.230;9.122;2023-02-01T11:38:22;12.30;;;3.10;;
67597;SDS011;62026;39.230;9.122;2023-02-01T11:43:51;8.95;;;2.38;;
67597;SDS011;62026;39.230;9.122;2023-02-01T11:46:26;8.60;;;3.08;;
67597;SDS011;62026;39.230;9.122;2023-02-01T11:48:57;5.90;;;2.40;;
67597;SDS011;62026;39.230;9.122;2023-02-01T12:12:31;9.82;;;2.67;;
67597;SDS011;62026;39.230;9.122;2023-02-01T12:15:20;12.82;;;2.30;;
67597;SDS011;62026;39.230;9.122;2023-02-01T12:35:38;5.68;;;2.13;;
67597;SDS011;62026;39.230;9.122;2023-02-01T12:42:24;7.03;;;2.50;;
67597;SDS011;62026;39.230;9.122;2023-02-01T12:47:53;8.57;;;2.42;;
67597;SDS011;62026;39.230;9.122;2023-02-01T12:50:45;9.35;;;2.88;;
67597;SDS011;62026;39.230;9.122;2023-02-01T12:53:35;8.23;;;2.45;;
67597;SDS011;62026;39.230;9.122;2023-02-01T12:56:59;6.28;;;2.47;;
67597;SDS011;62026;39.230;9.122;2023-02-01T12:59:34;10.82;;;3.20;;
67597;SDS011;62026;39.230;9.122;2023-02-01T13:02:19;8.85;;;3.17;;
67597;SDS011;62026;39.230;9.122;2023-02-01T13:05:11;8.15;;;2.80;;
67597;SDS011;62026;39.230;9.122;2023-02-01T13:10:42;12.80;;;5.82;;
67597;SDS011;62026;39.230;9.122;2023-02-01T13:13:19;9.15;;;3.50;;
67597;SDS011;62026;39.230;9.122;2023-02-01T13:16:31;10.85;;;3.55;;
67597;SDS011;62026;39.230;9.122;2023-02-01T13:19:16;13.77;;;3.60;;
67597;SDS011;62026;39.230;9.122;2023-02-01T13:22:28;6.65;;;2.95;;
67597;SDS011;62026;39.230;9.122;2023-02-01T13:25:13;9.35;;;2.85;;
67597;SDS011;62026;39.230;9.122;2023-02-01T13:28:04;8.35;;;2.88;;
67597;SDS011;62026;39.230;9.122;2023-02-01T13:39:38;8.93;;;2.75;;
67597;SDS011;62026;39.230;9.122;2023-02-01T13:42:58;8.68;;;2.90;;
67597;SDS011;62026;39.230;9.122;2023-02-01T13:45:25;7.28;;;2.50;;
67597;SDS011;62026;39.230;9.122;2023-02-01T13:47:59;8.30;;;3.22;;
67597;SDS011;62026;39.230;9.122;2023-02-01T13:50:35;11.73;;;2.92;;
67597;SDS011;62026;39.230;9.122;2023-02-01T13:55:38;10.27;;;2.53;;
67597;SDS011;62026;39.230;9.122;2023-02-01T14:03:46;9.70;;;2.80;;
67597;SDS011;62026;39.230;9.122;2023-02-01T14:16:41;7.00;;;2.80;;
67597;SDS011;62026;39.230;9.122;2023-02-01T14:19:19;6.63;;;2.50;;
67597;SDS011;62026;39.230;9.122;2023-02-01T14:21:52;8.32;;;2.67;;
67597;SDS011;62026;39.230;9.122;2023-02-01T14:24:30;9.18;;;3.17;;
67597;SDS011;62026;39.230;9.122;2023-02-01T14:27:00;8.07;;;2.50;;
67597;SDS011;62026;39.230;9.122;2023-02-01T14:29:56;8.07;;;2.92;;
67597;SDS011;62026;39.230;9.122;2023-02-01T14:35:04;9.65;;;2.67;;
67597;SDS011;62026;39.230;9.122;2023-02-01T14:37:43;8.35;;;2.45;;
67597;SDS011;62026;39.230;9.122;2023-02-01T14:47:52;9.40;;;2.70;;
67597;SDS011;62026;39.230;9.122;2023-02-01T14:55:46;7.35;;;3.10;;
67597;SDS011;62026;39.230;9.122;2023-02-01T15:03:54;5.85;;;2.60;;
67597;SDS011;62026;39.230;9.122;2023-02-01T15:06:57;6.15;;;2.25;;
67597;SDS011;62026;39.230;9.122;2023-02-01T15:09:42;8.07;;;2.65;;
67597;SDS011;62026;39.230;9.122;2023-02-01T15:20:23;7.70;;;2.35;;
67597;SDS011;62026;39.230;9.122;2023-02-01T15:25:34;7.18;;;2.22;;
67597;SDS011;62026;39.230;9.122;2023-02-01T15:28:03;7.85;;;2.58;;
67597;SDS011;62026;39.230;9.122;2023-02-01T15:30:34;9.75;;;2.72;;
67597;SDS011;62026;39.230;9.122;2023-02-01T15:35:43;12.70;;;3.13;;
67597;SDS011;62026;39.230;9.122;2023-02-01T15:46:32;8.20;;;2.50;;
67597;SDS011;62026;39.230;9.122;2023-02-01T15:51:54;11.88;;;2.90;;
67597;SDS011;62026;39.230;9.122;2023-02-01T15:54:27;7.38;;;3.10;;
67597;SDS011;62026;39.230;9.122;2023-02-01T15:57:02;8.98;;;2.58;;
67597;SDS011;62026;39.230;9.122;2023-02-01T15:59:43;10.30;;;2.70;;
67597;SDS011;62026;39.230;9.122;2023-02-01T16:02:26;9.75;;;2.55;;
67597;SDS011;62026;39.230;9.122;2023-02-01T16:04:59;6.82;;;2.47;;
67597;SDS011;62026;39.230;9.122;2023-02-01T16:07:55;6.10;;;2.05;;
67597;SDS011;62026;39.230;9.122;2023-02-01T16:10:43;6.38;;;2.30;;
67597;SDS011;62026;39.230;9.122;2023-02-01T16:13:12;9.88;;;2.45;;
67597;SDS011;62026;39.230;9.122;2023-02-01T16:15:40;7.93;;;2.55;;
67597;SDS011;62026;39.230;9.122;2023-02-01T16:18:07;10.55;;;2.40;;
67597;SDS011;62026;39.230;9.122;2023-02-01T16:20:35;8.13;;;2.83;;
67597;SDS011;62026;39.230;9.122;2023-02-01T16:23:04;8.45;;;3.03;;
67597;SDS011;62026;39.230;9.122;2023-02-01T16:25:32;9.40;;;3.13;;
67597;SDS011;62026;39.230;9.122;2023-02-01T16:28:03;10.88;;;3.50;;
67597;SDS011;62026;39.230;9.122;2023-02-01T16:30:30;10.77;;;3.35;;
67597;SDS011;62026;39.230;9.122;2023-02-01T16:32:58;11.48;;;4.40;;
67597;SDS011;62026;39.230;9.122;2023-02-01T16:35:28;8.45;;;3.08;;
67597;SDS011;62026;39.230;9.122;2023-02-01T16:38:13;8.27;;;3.15;;
67597;SDS011;62026;39.230;9.122;2023-02-01T16:40:44;7.88;;;2.90;;
67597;SDS011;62026;39.230;9.122;2023-02-01T16:45:49;7.28;;;2.80;;
67597;SDS011;62026;39.230;9.122;2023-02-01T16:48:22;8.50;;;3.00;;
67597;SDS011;62026;39.230;9.122;2023-02-01T16:51:10;6.95;;;2.58;;
67597;SDS011;62026;39.230;9.122;2023-02-01T16:53:41;8.13;;;2.75;;
67597;SDS011;62026;39.230;9.122;2023-02-01T16:56:10;8.68;;;3.40;;
67597;SDS011;62026;39.230;9.122;2023-02-01T16:58:44;9.82;;;3.30;;
67597;SDS011;62026;39.230;9.122;2023-02-01T17:01:11;10.02;;;3.72;;
67597;SDS011;62026;39.230;9.122;2023-02-01T17:03:39;7.65;;;3.33;;
67597;SDS011;62026;39.230;9.122;2023-02-01T17:06:09;6.82;;;2.67;;
67597;SDS011;62026;39.230;9.122;2023-02-01T17:08:41;7.97;;;3.38;;
67597;SDS011;62026;39.230;9.122;2023-02-01T17:11:11;7.07;;;3.05;;
67597;SDS011;62026;39.230;9.122;2023-02-01T17:13:38;7.88;;;3.97;;
67597;SDS011;62026;39.230;9.122;2023-02-01T17:18:58;8.70;;;4.03;;
67597;SDS011;62026;39.230;9.122;2023-02-01T17:21:30;12.65;;;5.00;;
67597;SDS011;62026;39.230;9.122;2023-02-01T17:24:08;13.43;;;2.90;;
67597;SDS011;62026;39.230;9.122;2023-02-01T17:26:39;12.30;;;3.13;;
67597;SDS011;62026;39.230;9.122;2023-02-01T17:29:06;13.27;;;3.75;;
67597;SDS011;62026;39.230;9.122;2023-02-01T17:31:33;11.27;;;3.55;;
67597;SDS011;62026;39.230;9.122;2023-02-01T17:34:06;10.45;;;3.95;;
67597;SDS011;62026;39.230;9.122;2023-02-01T17:36:34;15.77;;;3.60;;
67597;SDS011;62026;39.230;9.122;2023-02-01T17:39:00;11.48;;;2.83;;
67597;SDS011;62026;39.230;9.122;2023-02-01T17:41:27;9.50;;;3.30;;
67597;SDS011;62026;39.230;9.122;2023-02-01T17:43:54;9.18;;;2.47;;
67597;SDS011;62026;39.230;9.122;2023-02-01T17:46:20;8.15;;;2.53;;
67597;SDS011;62026;39.230;9.122;2023-02-01T17:48:54;9.30;;;2.10;;
67597;SDS011;62026;39.230;9.122;2023-02-01T17:51:26;7.10;;;2.40;;
67597;SDS011;62026;39.230;9.122;2023-02-01T17:53:55;10.88;;;3.33;;
67597;SDS011;62026;39.230;9.122;2023-02-01T17:56:22;10.98;;;3.15;;
67597;SDS011;62026;39.230;9.122;2023-02-01T17:58:49;11.25;;;2.58;;
67597;SDS011;62026;39.230;9.122;2023-02-01T18:01:20;7.30;;;2.65;;
67597;SDS011;62026;39.230;9.122;2023-02-01T18:03:49;12.10;;;2.58;;
67597;SDS011;62026;39.230;9.122;2023-02-01T18:06:21;11.25;;;2.55;;
67597;SDS011;62026;39.230;9.122;2023-02-01T18:08:53;9.93;;;3.38;;
67597;SDS011;62026;39.230;9.122;2023-02-01T18:11:20;5.78;;;2.55;;
67597;SDS011;62026;39.230;9.122;2023-02-01T18:13:50;9.10;;;2.53;;